Time;durP1;ratioP1;P1;durP2;ratioP2;P2;SDS_P1;SDS_P2;PMS_P1;PMS_P2;Temp;Humidity;BMP_temperature;BMP_pressure;BME280_temperature;BME280_humidity;BME280_pressure;Samples;Min_cycle;Max_cycle;Signal;HPM_P1;HPM_P2
2022/04/07 00:00:07;;;;;;;3.00;1.70;;;11.80;99.90;;;;;;6186105;23;20390;-81
2022/04/07 00:02:34;;;;;;;2.57;1.87;;;11.70;99.90;;;;;;6185126;23;20405;-82
2022/04/07 00:05:02;;;;;;;1.70;1.60;;;11.70;99.90;;;;;;6186362;23;20486;-82
2022/04/07 00:07:29;;;;;;;2.10;1.90;;;11.60;99.90;;;;;;6185477;23;20410;-82
2022/04/07 00:09:55;;;;;;;2.03;1.90;;;11.60;99.90;;;;;;6187530;23;20443;-84
2022/04/07 00:12:22;;;;;;;1.70;1.60;;;11.60;99.90;;;;;;6187016;23;20416;-83
2022/04/07 00:14:48;;;;;;;2.10;1.93;;;11.60;99.90;;;;;;6186769;23;20444;-83
2022/04/07 00:17:15;;;;;;;2.20;1.53;;;11.70;99.90;;;;;;6186775;23;20390;-84
2022/04/07 00:19:42;;;;;;;2.97;1.70;;;11.60;99.90;;;;;;6186626;23;20456;-80
2022/04/07 00:22:10;;;;;;;2.70;1.60;;;11.50;99.90;;;;;;6188761;23;20404;-82
2022/04/07 00:24:36;;;;;;;1.90;1.80;;;11.50;99.90;;;;;;6189704;23;20433;-84
2022/04/07 00:27:03;;;;;;;1.70;1.60;;;11.50;99.90;;;;;;6189037;23;20412;-81
2022/04/07 00:29:30;;;;;;;1.80;1.70;;;11.40;99.90;;;;;;6204419;23;20433;-82
2022/04/07 00:31:57;;;;;;;1.70;1.60;;;11.30;99.90;;;;;;6193122;23;20480;-84
2022/04/07 00:34:24;;;;;;;1.70;1.53;;;11.40;99.90;;;;;;6187214;23;20720;-82
2022/04/07 00:36:51;;;;;;;1.50;1.40;;;11.40;99.90;;;;;;6189064;23;20893;-81
2022/04/07 00:39:19;;;;;;;2.17;1.97;;;11.30;99.90;;;;;;6192507;23;20452;-81
2022/04/07 00:41:46;;;;;;;1.57;1.27;;;11.40;99.90;;;;;;6185382;23;20475;-82
2022/04/07 00:44:12;;;;;;;1.60;1.50;;;11.30;99.90;;;;;;6186011;23;20909;-83
2022/04/07 00:46:40;;;;;;;2.20;1.73;;;11.40;99.90;;;;;;6185409;23;20948;-82
2022/04/07 00:49:07;;;;;;;1.73;1.43;;;11.40;99.90;;;;;;6185210;23;20960;-82
2022/04/07 00:51:35;;;;;;;2.03;1.53;;;11.40;99.90;;;;;;6185589;23;20738;-81
2022/04/07 00:54:02;;;;;;;1.97;1.63;;;11.50;99.90;;;;;;6186027;23;20402;-82
2022/04/07 00:56:31;;;;;;;4.17;1.70;;;11.60;99.90;;;;;;6186164;23;20430;-82
2022/04/07 00:58:58;;;;;;;1.60;1.40;;;11.60;99.90;;;;;;6190230;23;20402;-80
2022/04/07 01:01:28;;;;;;;1.63;1.53;;;11.60;99.90;;;;;;6202394;23;20405;-82
2022/04/07 01:03:55;;;;;;;2.20;2.00;;;11.70;99.90;;;;;;6199298;23;20727;-82
2022/04/07 01:06:22;;;;;;;1.63;1.53;;;11.70;99.90;;;;;;6187936;23;20426;-81
2022/04/07 01:08:48;;;;;;;1.70;1.47;;;11.70;99.90;;;;;;6187722;23;20728;-81
2022/04/07 01:11:15;;;;;;;1.93;1.30;;;11.70;99.90;;;;;;6186335;23;20401;-80
2022/04/07 01:13:49;;;;;;;1.80;1.47;;;11.60;99.90;;;;;;6185463;23;20409;-81
2022/04/07 01:16:17;;;;;;;1.43;1.33;;;11.60;99.90;;;;;;6190947;23;20438;-82
2022/04/07 01:18:44;;;;;;;1.23;1.13;;;11.50;99.90;;;;;;6185415;23;20401;-82
2022/04/07 01:21:11;;;;;;;1.33;1.00;;;11.50;99.90;;;;;;6187237;23;20405;-82
2022/04/07 01:23:39;;;;;;;1.30;1.07;;;11.40;99.90;;;;;;6185310;23;20464;-81
2022/04/07 01:26:09;;;;;;;1.43;0.90;;;11.40;99.90;;;;;;6185809;23;21223;-82
2022/04/07 01:28:36;;;;;;;1.50;1.40;;;11.40;99.90;;;;;;6185577;23;20386;-80
2022/04/07 01:31:03;;;;;;;1.33;1.00;;;11.40;99.90;;;;;;6184904;23;20445;-83
2022/04/07 01:33:30;;;;;;;1.70;1.60;;;11.40;99.90;;;;;;6184970;23;20412;-83
2022/04/07 01:35:57;;;;;;;1.93;0.90;;;11.40;99.90;;;;;;6184803;23;20430;-83
2022/04/07 01:38:24;;;;;;;1.23;1.10;;;11.30;99.90;;;;;;6185253;23;20747;-82
2022/04/07 01:40:51;;;;;;;1.10;1.00;;;11.30;99.90;;;;;;6185801;23;20919;-83
2022/04/07 01:43:19;;;;;;;1.50;1.20;;;11.20;99.90;;;;;;6194512;23;20776;-80
2022/04/07 01:45:47;;;;;;;1.20;0.70;;;11.20;99.90;;;;;;6195353;23;20797;-83
2022/04/07 01:48:16;;;;;;;1.30;0.90;;;11.20;99.90;;;;;;6187316;23;20412;-82
2022/04/07 01:50:44;;;;;;;1.20;1.00;;;11.10;99.90;;;;;;6186862;23;20437;-82
2022/04/07 01:53:11;;;;;;;0.77;0.77;;;11.10;99.90;;;;;;6184470;23;20900;-82
2022/04/07 01:55:39;;;;;;;1.07;0.97;;;11.10;99.90;;;;;;6185288;23;20431;-81
2022/04/07 01:58:06;;;;;;;1.17;1.07;;;11.10;99.90;;;;;;6186192;23;20394;-84
2022/04/07 02:00:34;;;;;;;2.00;1.10;;;11.10;99.90;;;;;;6187617;23;20406;-83
2022/04/07 02:03:05;;;;;;;0.90;0.80;;;11.10;99.90;;;;;;6186512;23;20479;-84
2022/04/07 02:05:33;;;;;;;1.80;1.03;;;11.10;99.90;;;;;;6187324;23;20436;-83
2022/04/07 02:08:00;;;;;;;1.30;1.10;;;11.10;99.90;;;;;;6191200;23;20433;-83
2022/04/07 02:10:28;;;;;;;2.40;1.20;;;11.10;99.90;;;;;;6202257;23;20437;-82
2022/04/07 02:12:55;;;;;;;1.47;1.30;;;11.10;99.90;;;;;;6200219;23;20429;-82
2022/04/07 02:15:21;;;;;;;1.00;0.90;;;11.10;99.90;;;;;;6205900;23;20438;-81
2022/04/07 02:17:49;;;;;;;1.40;1.00;;;11.10;99.90;;;;;;6191405;23;20465;-81
2022/04/07 02:20:16;;;;;;;1.17;1.00;;;11.20;99.90;;;;;;6189975;23;20460;-83
2022/04/07 02:22:43;;;;;;;1.43;1.10;;;11.20;99.90;;;;;;6190388;23;20412;-82
2022/04/07 02:25:10;;;;;;;1.27;1.17;;;11.20;99.90;;;;;;6188784;23;20431;-82
2022/04/07 02:27:38;;;;;;;1.40;1.10;;;11.20;99.90;;;;;;6187998;23;20402;-82
2022/04/07 02:30:07;;;;;;;2.80;1.40;;;11.20;99.90;;;;;;6186341;23;20434;-83
2022/04/07 02:32:33;;;;;;;1.23;1.13;;;11.20;99.90;;;;;;6188252;23;20978;-83
2022/04/07 02:35:02;;;;;;;1.73;1.20;;;11.20;99.90;;;;;;6187167;23;20445;-84
2022/04/07 02:37:28;;;;;;;1.33;1.00;;;11.20;99.90;;;;;;6187023;23;20457;-83
2022/04/07 02:39:55;;;;;;;1.93;1.10;;;11.20;99.90;;;;;;6186759;23;20774;-83
2022/04/07 02:42:22;;;;;;;1.60;1.33;;;11.20;99.90;;;;;;6186400;23;20748;-82
2022/04/07 02:44:49;;;;;;;1.80;1.27;;;11.20;99.90;;;;;;6187375;23;20453;-81
2022/04/07 02:47:16;;;;;;;2.70;1.60;;;11.10;99.90;;;;;;6195222;23;20960;-82
2022/04/07 02:49:43;;;;;;;1.73;1.20;;;11.20;99.90;;;;;;6190118;23;20442;-81
2022/04/07 02:52:11;;;;;;;1.57;1.23;;;11.20;99.90;;;;;;6195185;23;20460;-81
2022/04/07 02:54:38;;;;;;;1.83;1.33;;;11.20;99.90;;;;;;6187714;23;20406;-83
2022/04/07 02:57:06;;;;;;;1.30;1.20;;;11.20;99.90;;;;;;6186578;23;20908;-81
2022/04/07 02:59:33;;;;;;;2.00;1.33;;;11.10;99.90;;;;;;6187573;23;20398;-83
2022/04/07 03:02:00;;;;;;;2.13;1.53;;;11.10;99.90;;;;;;6185738;23;20405;-82
2022/04/07 03:04:27;;;;;;;2.20;1.50;;;11.10;99.90;;;;;;6185902;23;20418;-82
2022/04/07 03:06:54;;;;;;;2.20;1.50;;;11.00;99.90;;;;;;6186480;23;20413;-82
2022/04/07 03:09:22;;;;;;;1.57;1.20;;;11.00;99.90;;;;;;6194728;23;20406;-80
2022/04/07 03:11:49;;;;;;;1.30;1.20;;;11.00;99.90;;;;;;6201285;23;20398;-82
2022/04/07 03:14:16;;;;;;;1.10;0.80;;;11.00;99.90;;;;;;6191190;23;20456;-83
2022/04/07 03:16:43;;;;;;;1.10;0.90;;;11.00;99.90;;;;;;6187120;23;20769;-82
2022/04/07 03:19:10;;;;;;;1.30;0.97;;;10.90;99.90;;;;;;6187125;23;20410;-82
2022/04/07 03:21:37;;;;;;;1.60;1.10;;;11.00;99.90;;;;;;6186334;23;20414;-82
2022/04/07 03:24:04;;;;;;;1.53;1.00;;;11.00;99.90;;;;;;6186849;23;20406;-83
2022/04/07 03:26:32;;;;;;;0.90;0.80;;;11.00;99.90;;;;;;6201497;23;20425;-81
2022/04/07 03:28:58;;;;;;;1.93;1.00;;;11.00;99.90;;;;;;6203013;23;20463;-83
2022/04/07 03:31:25;;;;;;;1.73;0.83;;;11.00;99.90;;;;;;6186798;23;20446;-84
2022/04/07 03:33:51;;;;;;;0.90;0.67;;;11.00;99.90;;;;;;6188900;23;20436;-83
2022/04/07 03:36:18;;;;;;;1.30;0.93;;;11.00;99.90;;;;;;6192455;23;20425;-81
2022/04/07 03:38:45;;;;;;;1.67;1.00;;;11.00;99.90;;;;;;6186559;23;20406;-82
2022/04/07 03:41:12;;;;;;;1.30;0.97;;;11.00;99.90;;;;;;6186832;23;20406;-83
2022/04/07 03:43:42;;;;;;;1.87;1.00;;;11.00;99.90;;;;;;6190132;23;20410;-82
2022/04/07 03:46:09;;;;;;;1.60;1.00;;;11.00;99.90;;;;;;6191611;23;20426;-82
2022/04/07 03:48:36;;;;;;;1.00;0.83;;;11.00;99.90;;;;;;6190417;23;20474;-83
2022/04/07 03:51:03;;;;;;;2.90;1.47;;;11.00;99.90;;;;;;6194219;23;20434;-82
2022/04/07 03:53:30;;;;;;;1.00;0.87;;;11.00;99.90;;;;;;6191247;23;20472;-83
2022/04/07 03:55:57;;;;;;;1.63;1.07;;;11.00;99.90;;;;;;6189957;23;20434;-82
2022/04/07 03:58:25;;;;;;;1.27;0.97;;;11.00;99.90;;;;;;6192297;23;20786;-82
2022/04/07 04:00:54;;;;;;;3.23;0.83;;;11.00;99.90;;;;;;6193081;23;20402;-82
2022/04/07 04:03:21;;;;;;;1.87;1.10;;;11.00;99.90;;;;;;6202291;23;20410;-81
2022/04/07 04:05:47;;;;;;;1.30;1.07;;;11.00;99.90;;;;;;6204044;23;20449;-80
2022/04/07 04:08:14;;;;;;;1.40;0.90;;;11.00;99.90;;;;;;6200074;23;20414;-83
2022/04/07 04:10:41;;;;;;;1.27;1.03;;;11.10;99.90;;;;;;6190138;23;20438;-81
2022/04/07 04:13:07;;;;;;;3.00;0.93;;;11.10;99.90;;;;;;6189514;23;20398;-82
2022/04/07 04:15:34;;;;;;;1.60;0.90;;;11.00;99.90;;;;;;6186393;23;20429;-82
2022/04/07 04:18:02;;;;;;;1.63;1.00;;;11.00;99.90;;;;;;6186389;23;20406;-81
2022/04/07 04:20:28;;;;;;;1.57;0.90;;;11.00;99.90;;;;;;6186004;23;20406;-82
2022/04/07 04:22:55;;;;;;;1.50;1.10;;;11.00;99.90;;;;;;6184824;23;20408;-83
2022/04/07 04:25:22;;;;;;;1.70;0.93;;;11.00;99.90;;;;;;6185324;23;20462;-83
2022/04/07 04:27:49;;;;;;;1.63;1.10;;;11.00;99.90;;;;;;6191320;23;20438;-85
2022/04/07 04:30:18;;;;;;;1.00;0.90;;;11.00;99.90;;;;;;6188133;23;20442;-82
2022/04/07 04:32:44;;;;;;;3.57;1.23;;;11.00;99.90;;;;;;6185637;23;20414;-81
2022/04/07 04:35:12;;;;;;;1.50;1.40;;;11.00;99.90;;;;;;6185555;23;20956;-81
2022/04/07 04:37:39;;;;;;;1.20;0.97;;;11.00;99.90;;;;;;6188036;23;20410;-83
2022/04/07 04:40:07;;;;;;;3.83;1.13;;;11.00;99.90;;;;;;6201752;23;20429;-79
2022/04/07 04:42:34;;;;;;;1.17;1.00;;;11.00;99.90;;;;;;6196290;23;20413;-82
2022/04/07 04:45:01;;;;;;;3.90;1.23;;;11.10;99.90;;;;;;6187134;23;20426;-83
2022/04/07 04:47:27;;;;;;;1.63;0.93;;;11.10;99.90;;;;;;6186468;23;20409;-81
2022/04/07 04:49:54;;;;;;;2.90;1.37;;;11.10;99.90;;;;;;6187780;23;20412;-82
2022/04/07 04:52:22;;;;;;;1.97;0.90;;;11.10;99.90;;;;;;6188145;23;20417;-82
2022/04/07 04:54:48;;;;;;;1.73;1.20;;;11.10;99.90;;;;;;6190151;23;20422;-82
2022/04/07 04:57:15;;;;;;;2.73;0.87;;;11.20;99.90;;;;;;6186811;23;20896;-82
2022/04/07 04:59:42;;;;;;;1.30;0.90;;;11.20;99.90;;;;;;6186846;23;20413;-83
2022/04/07 05:02:09;;;;;;;1.30;1.00;;;11.20;99.90;;;;;;6187687;23;20402;-82
2022/04/07 05:04:36;;;;;;;2.00;1.30;;;11.20;99.90;;;;;;6193979;23;20409;-81
2022/04/07 05:07:03;;;;;;;4.27;1.30;;;11.20;99.90;;;;;;6191446;23;20409;-82
2022/04/07 05:09:31;;;;;;;1.37;1.27;;;11.20;99.90;;;;;;6187297;23;20633;-81
2022/04/07 05:11:58;;;;;;;4.63;1.00;;;11.20;99.90;;;;;;6185806;23;20472;-83
2022/04/07 05:14:25;;;;;;;1.27;1.17;;;11.20;99.90;;;;;;6187782;23;20441;-82
2022/04/07 05:16:51;;;;;;;1.07;0.97;;;11.20;99.90;;;;;;6187293;23;20413;-83
2022/04/07 05:19:18;;;;;;;1.23;1.00;;;11.20;99.90;;;;;;6188056;23;20410;-83
2022/04/07 05:21:49;;;;;;;1.63;0.97;;;11.20;99.90;;;;;;6192263;23;20406;-81
2022/04/07 05:24:16;;;;;;;1.03;0.77;;;11.10;99.90;;;;;;6193245;23;20406;-82
2022/04/07 05:26:44;;;;;;;2.80;0.80;;;11.10;99.90;;;;;;6191809;23;20441;-82
2022/04/07 05:29:11;;;;;;;1.17;0.77;;;11.20;99.90;;;;;;6189430;23;20476;-82
2022/04/07 05:31:38;;;;;;;1.30;1.00;;;11.20;99.90;;;;;;6188358;23;20968;-83
2022/04/07 05:34:05;;;;;;;1.20;1.10;;;11.10;99.90;;;;;;6189524;23;20773;-83
2022/04/07 05:36:32;;;;;;;1.07;0.83;;;11.10;99.90;;;;;;6188289;23;20481;-83
2022/04/07 05:38:59;;;;;;;1.70;1.40;;;11.20;99.90;;;;;;6189066;23;20466;-88
2022/04/07 05:41:25;;;;;;;1.00;0.90;;;11.20;99.90;;;;;;6190109;23;20429;-88
2022/04/07 05:43:53;;;;;;;2.07;1.10;;;11.20;99.90;;;;;;6189504;23;20408;-87
2022/04/07 05:46:20;;;;;;;1.73;0.80;;;11.30;99.90;;;;;;6196374;23;20402;-88
2022/04/07 05:48:47;;;;;;;1.57;1.13;;;11.30;99.90;;;;;;6192043;23;20422;-87
2022/04/07 05:51:13;;;;;;;1.00;0.83;;;11.30;99.90;;;;;;6188114;23;20433;-88
2022/04/07 05:53:40;;;;;;;1.10;0.70;;;11.30;99.90;;;;;;6188657;23;20406;-88
2022/04/07 05:56:07;;;;;;;1.00;0.90;;;11.30;99.90;;;;;;6189501;23;20413;-88
2022/04/07 05:58:34;;;;;;;1.90;0.80;;;11.30;99.90;;;;;;6188944;23;20760;-88
2022/04/07 06:01:02;;;;;;;0.77;0.60;;;11.40;99.90;;;;;;6188242;23;20406;-88
2022/04/07 06:03:31;;;;;;;1.80;0.93;;;11.50;99.90;;;;;;6187956;23;20440;-87
2022/04/07 06:05:58;;;;;;;0.90;0.63;;;11.70;99.90;;;;;;6188779;23;20472;-88
2022/04/07 06:08:25;;;;;;;1.70;0.90;;;11.80;99.90;;;;;;6188665;23;20433;-89
2022/04/07 06:10:51;;;;;;;0.80;0.80;;;11.90;99.90;;;;;;6188950;23;20449;-88
2022/04/07 06:13:18;;;;;;;1.73;0.70;;;11.90;99.90;;;;;;6187367;23;20421;-88
2022/04/07 06:15:45;;;;;;;3.80;1.13;;;12.00;99.60;;;;;;6201306;23;20500;-87
2022/04/07 06:18:14;;;;;;;1.70;0.90;;;12.10;99.60;;;;;;6190421;23;20426;-87
2022/04/07 06:20:41;;;;;;;1.63;0.60;;;12.00;99.10;;;;;;6187894;23;20425;-88
2022/04/07 06:23:09;;;;;;;2.07;1.00;;;12.10;99.10;;;;;;6187565;23;20738;-87
2022/04/07 06:25:36;;;;;;;0.80;0.60;;;12.10;98.90;;;;;;6188163;23;20411;-87
2022/04/07 06:28:04;;;;;;;3.43;1.13;;;12.20;98.20;;;;;;6201622;23;20437;-88
2022/04/07 06:30:31;;;;;;;3.27;1.37;;;12.20;98.20;;;;;;6187537;23;20892;-87
2022/04/07 06:32:58;;;;;;;1.43;0.90;;;12.20;98.20;;;;;;6189500;23;20435;-88
2022/04/07 06:35:26;;;;;;;2.37;1.10;;;12.30;97.90;;;;;;6189342;23;20904;-89
2022/04/07 06:37:54;;;;;;;7.03;1.50;;;12.30;97.70;;;;;;6187928;23;20406;-88
2022/04/07 06:40:23;;;;;;;4.70;1.57;;;12.20;97.60;;;;;;6187750;23;20457;-88
2022/04/07 06:42:50;;;;;;;1.40;0.73;;;12.30;97.60;;;;;;6187217;23;20493;-88
2022/04/07 06:45:17;;;;;;;0.70;0.63;;;12.20;97.80;;;;;;6186792;23;20417;-88
2022/04/07 06:47:44;;;;;;;1.10;0.70;;;12.10;97.20;;;;;;6186796;23;20743;-88
2022/04/07 06:50:12;;;;;;;1.23;0.90;;;12.20;97.50;;;;;;6186166;23;20418;-88
2022/04/07 06:52:41;;;;;;;0.93;0.60;;;12.20;97.30;;;;;;6188291;23;20492;-88
2022/04/07 06:55:09;;;;;;;1.40;0.60;;;12.20;97.30;;;;;;6188044;23;20474;-88
2022/04/07 06:57:51;;;;;;;1.77;0.50;;;12.30;97.40;;;;;;6192403;23;20411;-88
2022/04/07 07:00:19;;;;;;;0.70;0.50;;;12.20;97.20;;;;;;6210914;23;20433;-86
2022/04/07 07:02:47;;;;;;;5.43;0.87;;;12.20;97.20;;;;;;6203372;23;20410;-88
2022/04/07 07:05:14;;;;;;;1.70;0.87;;;12.30;97.00;;;;;;6203109;23;20394;-86
2022/04/07 07:07:43;;;;;;;1.17;0.70;;;12.30;96.80;;;;;;6192322;23;20410;-86
2022/04/07 07:10:09;;;;;;;1.70;0.70;;;12.30;96.90;;;;;;6189440;23;20394;-86
2022/04/07 07:12:37;;;;;;;3.00;0.70;;;12.40;96.70;;;;;;6188611;23;20767;-86
2022/04/07 07:15:04;;;;;;;3.17;0.90;;;12.40;97.10;;;;;;6188186;23;20417;-86
2022/04/07 07:17:34;;;;;;;1.10;0.70;;;12.50;96.50;;;;;;6196638;23;20412;-86
2022/04/07 07:20:02;;;;;;;1.00;0.90;;;12.60;96.60;;;;;;6193631;23;20431;-86
2022/04/07 07:22:29;;;;;;;2.03;0.50;;;12.60;96.40;;;;;;6192775;23;20463;-86
2022/04/07 07:24:57;;;;;;;1.47;0.70;;;12.60;96.10;;;;;;6189105;23;20410;-88
2022/04/07 07:27:24;;;;;;;5.40;0.87;;;12.70;96.20;;;;;;6210326;23;20405;-87
2022/04/07 07:29:51;;;;;;;1.23;0.63;;;12.70;96.00;;;;;;6208959;23;20426;-88
2022/04/07 07:32:18;;;;;;;1.97;1.07;;;12.70;96.20;;;;;;6195380;23;20447;-87
2022/04/07 07:34:45;;;;;;;2.37;1.10;;;12.70;95.80;;;;;;6188063;23;20409;-88
2022/04/07 07:37:11;;;;;;;3.80;1.83;;;12.70;95.40;;;;;;6193986;23;20406;-87
2022/04/07 07:39:38;;;;;;;4.50;1.57;;;12.80;95.50;;;;;;6192995;23;20808;-87
2022/04/07 07:42:07;;;;;;;1.43;0.80;;;12.80;95.40;;;;;;6195357;23;20405;-87
2022/04/07 07:44:33;;;;;;;1.77;0.70;;;12.90;95.40;;;;;;6194877;23;20390;-88
2022/04/07 07:47:00;;;;;;;0.93;0.60;;;13.00;95.40;;;;;;6212645;23;20425;-88
2022/04/07 07:49:27;;;;;;;2.90;0.53;;;13.10;95.00;;;;;;6211804;23;20426;-88
2022/04/07 07:51:53;;;;;;;1.53;0.80;;;13.00;94.70;;;;;;6207080;23;20472;-87
2022/04/07 07:54:20;;;;;;;0.90;0.60;;;13.00;94.80;;;;;;6214252;23;20416;-86
2022/04/07 07:56:53;;;;;;;1.83;0.70;;;13.10;94.70;;;;;;6213439;23;20390;-87
2022/04/07 07:59:21;;;;;;;2.10;0.57;;;13.20;94.80;;;;;;6213581;23;20437;-87
2022/04/07 08:01:49;;;;;;;0.90;0.60;;;13.40;94.70;;;;;;6212802;23;20437;-87
2022/04/07 08:04:16;;;;;;;1.57;0.80;;;13.30;94.30;;;;;;6197910;23;20405;-88
2022/04/07 08:07:09;;;;;;;2.40;1.00;;;13.20;94.40;;;;;;6200819;23;20583;-87
2022/04/07 08:09:36;;;;;;;2.50;0.67;;;13.20;94.90;;;;;;6213606;23;20431;-87
2022/04/07 08:12:03;;;;;;;2.10;0.70;;;13.10;94.30;;;;;;6213078;23;20473;-87
2022/04/07 08:14:32;;;;;;;1.27;0.93;;;13.10;94.60;;;;;;6212402;23;20398;-87
2022/04/07 08:16:58;;;;;;;0.97;0.70;;;13.10;94.50;;;;;;6195927;23;20460;-88
2022/04/07 08:19:25;;;;;;;2.07;0.70;;;13.20;94.60;;;;;;6204945;23;20423;-88
2022/04/07 08:21:52;;;;;;;1.00;0.50;;;13.30;94.20;;;;;;6205111;23;20412;-87
2022/04/07 08:24:20;;;;;;;1.83;0.80;;;13.40;94.30;;;;;;6187107;23;20896;-88
2022/04/07 08:26:47;;;;;;;1.10;0.80;;;13.40;94.00;;;;;;6202946;23;20414;-88
2022/04/07 08:29:13;;;;;;;1.47;0.63;;;13.50;94.10;;;;;;6210417;23;20482;-88
2022/04/07 08:31:41;;;;;;;3.27;0.87;;;13.50;93.80;;;;;;6190899;23;20438;-87
2022/04/07 08:34:08;;;;;;;1.10;0.90;;;13.60;93.50;;;;;;6185522;23;20900;-88
2022/04/07 08:36:35;;;;;;;3.40;0.83;;;13.70;93.50;;;;;;6186079;23;20749;-88
2022/04/07 08:39:01;;;;;;;2.50;1.00;;;13.70;93.20;;;;;;6186410;23;20456;-88
2022/04/07 08:41:31;;;;;;;1.23;0.70;;;13.60;93.30;;;;;;6187507;23;20414;-88
2022/04/07 08:43:58;;;;;;;0.77;0.50;;;13.60;93.50;;;;;;6187228;23;20497;-87
2022/04/07 08:46:27;;;;;;;1.70;0.60;;;13.50;93.80;;;;;;6186824;23;20762;-88
2022/04/07 08:48:56;;;;;;;1.90;0.83;;;13.50;94.10;;;;;;6186718;23;20957;-88
2022/04/07 08:51:26;;;;;;;0.80;0.60;;;13.60;93.70;;;;;;6205074;23;20453;-88
2022/04/07 08:53:52;;;;;;;1.70;0.40;;;13.70;93.60;;;;;;6202790;23;20522;-88
2022/04/07 08:56:19;;;;;;;1.07;0.60;;;13.80;93.30;;;;;;6189390;23;20408;-86
2022/04/07 08:58:46;;;;;;;2.63;0.60;;;13.90;93.10;;;;;;6190974;23;20429;-88
2022/04/07 09:01:12;;;;;;;3.90;1.07;;;13.90;93.00;;;;;;6188332;23;20407;-88
2022/04/07 09:03:42;;;;;;;2.30;1.03;;;13.90;92.80;;;;;;6186924;23;20464;-87
2022/04/07 09:06:10;;;;;;;1.60;0.60;;;14.00;92.90;;;;;;6188987;23;20708;-88
2022/04/07 09:08:40;;;;;;;4.20;1.43;;;13.90;92.20;;;;;;6193288;23;20745;-87
2022/04/07 09:11:09;;;;;;;1.37;0.70;;;13.90;92.00;;;;;;6197699;23;20775;-88
2022/04/07 09:13:39;;;;;;;2.10;0.63;;;14.00;92.00;;;;;;6187618;23;20379;-87
2022/04/07 09:16:10;;;;;;;0.80;0.50;;;14.00;91.90;;;;;;6187987;23;20403;-88
2022/04/07 09:18:38;;;;;;;2.10;0.70;;;14.00;91.70;;;;;;6186891;23;20422;-87
2022/04/07 09:21:05;;;;;;;1.20;0.50;;;14.00;91.70;;;;;;6192449;23;20413;-85
2022/04/07 09:23:38;;;;;;;3.23;0.87;;;14.00;91.50;;;;;;6208543;23;20390;-86
2022/04/07 09:26:06;;;;;;;1.17;0.60;;;14.10;91.80;;;;;;6206444;23;20375;-86
2022/04/07 09:28:33;;;;;;;1.67;0.50;;;14.20;91.40;;;;;;6194414;23;20423;-88
2022/04/07 09:31:01;;;;;;;9.00;0.70;;;14.10;91.60;;;;;;6187743;23;20755;-88
2022/04/07 09:33:29;;;;;;;1.17;0.67;;;13.90;92.50;;;;;;6185986;23;20815;-87
2022/04/07 09:36:01;;;;;;;4.40;0.80;;;13.80;93.10;;;;;;6185931;23;20714;-87
2022/04/07 09:38:27;;;;;;;0.80;0.53;;;13.80;93.00;;;;;;6187461;23;20444;-87
2022/04/07 09:41:04;;;;;;;1.00;0.50;;;13.80;92.30;;;;;;6210049;23;20491;-86
2022/04/07 09:43:30;;;;;;;1.73;0.80;;;13.70;93.30;;;;;;6187065;23;20387;-87
2022/04/07 09:45:57;;;;;;;1.43;0.70;;;13.30;94.40;;;;;;6186450;23;20395;-87
2022/04/07 09:48:27;;;;;;;0.70;0.40;;;13.20;95.60;;;;;;6188851;23;20437;-87
2022/04/07 09:51:04;;;;;;;1.90;0.57;;;13.10;95.10;;;;;;6185744;23;20399;-87
2022/04/07 09:53:35;;;;;;;2.00;0.63;;;13.10;95.90;;;;;;6187557;23;20445;-87
2022/04/07 09:56:04;;;;;;;0.87;0.40;;;13.30;95.30;;;;;;6190031;23;20444;-87
2022/04/07 09:58:33;;;;;;;2.13;0.60;;;13.50;95.20;;;;;;6186379;23;20430;-87
2022/04/07 10:01:02;;;;;;;1.20;0.70;;;13.70;95.10;;;;;;6187805;23;20458;-87
2022/04/07 10:03:29;;;;;;;0.80;0.50;;;13.90;95.20;;;;;;6186940;23;20412;-88
2022/04/07 10:05:57;;;;;;;1.63;0.60;;;14.40;93.70;;;;;;6189182;23;20397;-86
2022/04/07 10:08:24;;;;;;;0.70;0.50;;;14.40;92.80;;;;;;6208385;23;20419;-88
2022/04/07 10:10:51;;;;;;;1.53;0.60;;;14.40;93.40;;;;;;6211333;23;20404;-90
2022/04/07 10:13:19;;;;;;;1.90;0.80;;;14.40;92.80;;;;;;6194477;23;20443;-89
2022/04/07 10:15:47;;;;;;;0.83;0.60;;;14.50;92.40;;;;;;6186189;23;20414;-89
2022/04/07 10:18:20;;;;;;;2.10;1.77;;;14.50;92.30;;;;;;6188252;23;20423;-89
2022/04/07 10:20:50;;;;;;;1.30;0.70;;;14.80;92.20;;;;;;6189782;23;20419;-89
2022/04/07 10:23:28;;;;;;;0.97;0.50;;;15.40;90.90;;;;;;6198727;23;20393;-84
2022/04/07 10:25:57;;;;;;;1.63;0.67;;;15.20;90.00;;;;;;6208060;23;20415;-86
2022/04/07 10:28:27;;;;;;;2.80;0.70;;;14.90;90.30;;;;;;6200182;23;20432;-86
2022/04/07 10:30:55;;;;;;;3.07;0.70;;;15.20;90.90;;;;;;6194528;23;20408;-86
2022/04/07 10:33:39;;;;;;;2.67;0.60;;;15.20;89.90;;;;;;6198512;23;20451;-86
2022/04/07 10:36:13;;;;;;;0.97;0.77;;;15.70;89.00;;;;;;6207320;23;20389;-89
2022/04/07 10:38:42;;;;;;;2.70;1.47;;;15.20;88.90;;;;;;6196698;23;20958;-89
2022/04/07 10:41:10;;;;;;;0.93;0.47;;;15.30;88.90;;;;;;6199893;23;20396;-89
2022/04/07 10:43:40;;;;;;;1.20;0.63;;;15.30;90.20;;;;;;6213179;23;20402;-89
2022/04/07 10:46:18;;;;;;;3.60;0.80;;;15.50;89.70;;;;;;6194746;23;20394;-88
2022/04/07 10:48:49;;;;;;;1.50;1.40;;;15.40;90.00;;;;;;6190961;23;20529;-89
2022/04/07 10:51:16;;;;;;;4.13;0.60;;;15.10;90.10;;;;;;6189758;23;20401;-89
2022/04/07 10:54:02;;;;;;;1.73;0.57;;;15.30;90.50;;;;;;6189755;23;20461;-89
2022/04/07 10:56:32;;;;;;;5.07;0.70;;;15.60;90.40;;;;;;6188599;23;20376;-89
2022/04/07 10:59:12;;;;;;;1.33;0.50;;;16.20;88.40;;;;;;6189667;23;20518;-89
2022/04/07 11:01:57;;;;;;;0.80;0.50;;;16.10;86.80;;;;;;6187421;23;20405;-89
2022/04/07 11:04:38;;;;;;;1.00;0.73;;;15.90;89.20;;;;;;6186987;23;20444;-88
2022/04/07 11:07:22;;;;;;;1.43;0.50;;;16.20;88.40;;;;;;6186074;23;20416;-89
2022/04/07 11:09:52;;;;;;;3.40;0.70;;;15.90;87.40;;;;;;6186867;23;20414;-89
2022/04/07 11:12:21;;;;;;;1.17;1.07;;;15.80;88.00;;;;;;6199833;23;20512;-89
2022/04/07 11:14:51;;;;;;;3.73;0.40;;;15.50;88.20;;;;;;6197979;23;20402;-89
2022/04/07 11:17:28;;;;;;;3.27;0.53;;;15.80;88.60;;;;;;6212285;23;20386;-90
2022/04/07 11:20:04;;;;;;;2.77;0.50;;;16.90;85.80;;;;;;6191348;23;20492;-89
2022/04/07 11:22:49;;;;;;;1.23;0.47;;;17.20;83.10;;;;;;6187304;23;20386;-89
2022/04/07 11:25:20;;;;;;;0.50;0.30;;;16.60;83.50;;;;;;6187128;23;20393;-90
2022/04/07 11:28:03;;;;;;;1.20;0.40;;;16.40;83.10;;;;;;6190077;23;20390;-89
2022/04/07 11:30:39;;;;;;;0.60;0.40;;;15.90;85.20;;;;;;6196212;23;20387;-89
2022/04/07 11:33:36;;;;;;;0.93;0.80;;;16.00;86.50;;;;;;6187692;23;20513;-89
2022/04/07 11:36:14;;;;;;;2.23;0.43;;;16.80;84.10;;;;;;6187779;23;20861;-89
2022/04/07 11:38:44;;;;;;;0.70;0.40;;;16.30;83.80;;;;;;6194059;23;20461;-80
2022/04/07 11:41:12;;;;;;;5.23;0.63;;;15.90;85.20;;;;;;6185386;23;20408;-82
2022/04/07 11:43:41;;;;;;;2.27;0.50;;;15.90;85.70;;;;;;6186132;23;20812;-81
2022/04/07 11:46:10;;;;;;;1.40;0.40;;;15.80;86.10;;;;;;6187592;23;20402;-81
2022/04/07 11:48:38;;;;;;;0.50;0.30;;;15.70;87.10;;;;;;6193286;23;20904;-81
2022/04/07 11:51:11;;;;;;;3.07;0.50;;;15.80;87.00;;;;;;6191195;23;20924;-81
2022/04/07 11:53:40;;;;;;;1.87;0.50;;;15.90;86.70;;;;;;6193423;23;20514;-82
2022/04/07 11:56:13;;;;;;;1.00;0.40;;;15.80;86.90;;;;;;6194558;23;20406;-79
2022/04/07 11:58:40;;;;;;;2.10;0.70;;;16.00;87.70;;;;;;6192512;23;20422;-82
2022/04/07 12:01:11;;;;;;;1.33;0.40;;;16.00;86.50;;;;;;6188342;23;20398;-81
2022/04/07 12:03:38;;;;;;;0.70;0.40;;;15.70;87.50;;;;;;6187356;23;20387;-81
2022/04/07 12:06:05;;;;;;;1.60;0.50;;;15.60;87.80;;;;;;6188613;23;20402;-81
2022/04/07 12:08:32;;;;;;;1.00;0.50;;;15.30;89.00;;;;;;6188576;23;20429;-80
2022/04/07 12:10:59;;;;;;;1.40;0.50;;;15.30;89.60;;;;;;6187837;23;20402;-79
2022/04/07 12:13:26;;;;;;;1.53;0.50;;;15.30;89.50;;;;;;6187442;23;20446;-80
2022/04/07 12:15:53;;;;;;;1.53;0.50;;;15.30;90.10;;;;;;6190870;23;20399;-82
2022/04/07 12:18:27;;;;;;;3.67;0.50;;;15.40;89.60;;;;;;6186783;23;20411;-81
2022/04/07 12:21:00;;;;;;;0.80;0.50;;;15.40;89.90;;;;;;6190619;23;20394;-80
2022/04/07 12:23:28;;;;;;;1.50;0.67;;;15.20;90.00;;;;;;6198130;23;20389;-79
2022/04/07 12:25:59;;;;;;;0.60;0.40;;;15.40;90.10;;;;;;6195046;23;20405;-81
2022/04/07 12:28:33;;;;;;;2.30;0.50;;;15.40;89.70;;;;;;6186963;23;20430;-81
2022/04/07 12:31:00;;;;;;;6.43;0.50;;;15.30;90.40;;;;;;6185888;23;20422;-82
2022/04/07 12:33:42;;;;;;;0.70;0.40;;;15.10;90.60;;;;;;6185628;23;20903;-80
2022/04/07 12:36:10;;;;;;;1.70;0.60;;;14.80;91.10;;;;;;6186492;23;20717;-82
2022/04/07 12:38:38;;;;;;;1.50;0.60;;;14.90;91.30;;;;;;6186082;23;20439;-82
2022/04/07 12:41:13;;;;;;;0.87;0.53;;;14.80;91.50;;;;;;6185019;23;20413;-82
2022/04/07 12:43:47;;;;;;;0.70;0.60;;;14.80;91.60;;;;;;6186290;23;20412;-81
2022/04/07 12:46:13;;;;;;;1.33;0.57;;;14.70;91.70;;;;;;6186609;23;20856;-80
2022/04/07 12:49:04;;;;;;;4.70;1.43;;;14.80;91.50;;;;;;6192248;23;20427;-82
2022/04/07 12:51:32;;;;;;;2.50;0.60;;;14.60;91.60;;;;;;6188972;23;20938;-82
2022/04/07 12:54:11;;;;;;;1.63;1.07;;;14.80;91.80;;;;;;6186988;23;20446;-80